Savanna, IL (61074)

3:27 AM CDT on September 29, 2016 (GMT -0500)
The Island City | | Change Station
Active Advisory: Flood Warning

Elev 604 ft 42.07 °N, 90.17 °W | Updated 35 seconds ago

Clear
Clear
54.0 °F
Feels Like 54.0 °F
N
4.0
Wind Variable Wind from NNW

Today
High -- | Low -- °F
--% Chance of Precip.
Yesterday
High -- | Low -- °F
Precip. -- in
Pressure 30.21 in
Visibility 10.0 miles
Clouds Clear
Dew Point 50 °F
Humidity 88%
Rainfall 0.00 in
Snow Depth Not available.
6:55 AM 6:44 PM
Waning Crescent, 3% visible
METAR KSFY 290815Z AUTO 36009KT 10SM CLR 12/10 A3021 RMK AO2 T01170100
Pressure 30.21 in
Visibility 10.0 miles
Clouds Clear
Dew Point 50 °F
Humidity 88%
Rainfall 0.00 in
Snow Depth Not available.
6:55 AM 6:44 PM
Waning Crescent, 3% visible
METAR KSFY 290815Z AUTO 36009KT 10SM CLR 12/10 A3021 RMK AO2 T01170100

10-Day Weather Forecast

Almanac

Astronomy

Sep. 29, 2016 Rise Set
Actual Time
Civil Twilight
Nautical Twilight
Astronomical Twilight
Moon
Length of Visible Light
Length of Day
Tomorrow will be .
, % of the Moon is Illuminated

Today's Extremes

State Highs State Lows

Community

WunderPhotos

Upload Photos

1,942,446 photos uploaded!

WunderBlog® & News

Nearby

Air Quality

  Air Quality AQ Index Pollutant
Not available.

Snow Depth

Station Depth Elevation

Earthquake Activity

City Distance Mag. Time & Date
Minimum magnitude displayed is 2.5.

Coastal Water Temperatures

Place Temperature

Stations

Nearby Weather Stations

Station Location Temp. Windchill Dew Point Humidity Wind Precip. Elev Updated Type
                   

Watches & Warnings

Flood Warning
Issued: 9:11 PM CDT Sep. 28, 2016 – National Weather Service

... Flood Warning now in effect until Tuesday morning...

The Flood Warning continues for
the Mississippi River at Fulton ld13.
* Until Tuesday morning.
* At 8:00 PM Wednesday the stage was 15.1 feet... and steady.
* Flood stage is 16.0 feet.
* No flooding is occurring and minor flooding is forecast.
* Forecast... rise above flood stage Saturday morning... and continue
rising to 16.3 feet Sunday morning. Fall below flood stage Tuesday
morning.
* Impact... at 16.0 feet... water affects a few houses at Thomson.


Lat... Lon 4211 9012 4208 9019 4189 9020 4188 9012
      4193 9008